createdAt,value
2019-05-19T00:01:33.762Z,11.03
2019-05-19T00:05:40.682Z,12.13
2019-05-19T00:09:47.435Z,10.90
2019-05-19T00:13:54.183Z,11.53
2019-05-19T00:18:00.957Z,11.53
2019-05-19T00:22:07.911Z,11.60
2019-05-19T00:26:14.685Z,12.53
2019-05-19T00:30:21.501Z,12.90
2019-05-19T00:34:31.194Z,12.33
2019-05-19T00:38:38.217Z,12.87
2019-05-19T00:42:44.971Z,12.83
2019-05-19T00:46:52.759Z,14.27
2019-05-19T00:50:59.624Z,13.80
2019-05-19T00:55:06.361Z,12.97
2019-05-19T00:59:13.735Z,13.07
2019-05-19T01:03:20.516Z,12.90
2019-05-19T01:07:27.373Z,14.33
2019-05-19T01:11:34.119Z,12.57
2019-05-19T01:15:40.968Z,12.07
2019-05-19T01:19:56.109Z,12.40
2019-05-19T01:23:56.850Z,12.73
2019-05-19T01:28:03.678Z,11.27
2019-05-19T01:32:10.549Z,12.17
2019-05-19T01:36:17.351Z,12.33
2019-05-19T01:40:24.099Z,12.70
2019-05-19T01:44:30.911Z,12.47
2019-05-19T01:48:38.672Z,12.50
2019-05-19T01:52:45.523Z,12.27
2019-05-19T01:56:52.234Z,12.63
2019-05-19T02:00:58.997Z,13.97
2019-05-19T02:05:05.820Z,14.63
2019-05-19T02:09:12.523Z,15.93
2019-05-19T02:13:19.677Z,16.00
2019-05-19T02:17:26.416Z,15.50
2019-05-19T02:21:34.102Z,16.23
2019-05-19T02:25:40.806Z,16.40
2019-05-19T02:29:48.461Z,17.90
2019-05-19T02:33:55.341Z,15.13
2019-05-19T02:38:02.442Z,12.80
2019-05-19T02:42:14.230Z,14.00
2019-05-19T02:46:21.699Z,12.13
2019-05-19T02:50:30.455Z,12.50
2019-05-19T02:54:38.740Z,12.73
2019-05-19T02:58:47.084Z,11.60
2019-05-19T03:02:54.161Z,12.07
2019-05-19T03:07:00.822Z,12.43
2019-05-19T03:11:07.830Z,12.13
2019-05-19T03:15:14.666Z,11.90
2019-05-19T03:19:21.364Z,11.67
2019-05-19T03:23:28.524Z,12.63
2019-05-19T03:27:37.473Z,12.93
2019-05-19T03:31:50.864Z,12.30
2019-05-19T03:35:57.587Z,11.73
2019-05-19T03:40:06.212Z,11.07
2019-05-19T03:44:12.929Z,11.07
2019-05-19T03:48:19.730Z,12.07
2019-05-19T03:52:26.452Z,11.17
2019-05-19T03:56:33.179Z,12.20
2019-05-19T04:00:39.865Z,11.70
2019-05-19T04:04:46.644Z,12.10
2019-05-19T04:08:53.400Z,11.13
2019-05-19T04:13:00.087Z,10.60
2019-05-19T04:17:06.870Z,10.97
2019-05-19T04:21:13.581Z,11.23
2019-05-19T04:25:20.252Z,10.90
2019-05-19T04:29:26.996Z,12.57
2019-05-19T04:33:33.678Z,11.90
2019-05-19T04:37:40.469Z,12.23
2019-05-19T04:41:47.164Z,11.37
2019-05-19T04:45:53.895Z,12.50
2019-05-19T04:50:00.612Z,11.47
2019-05-19T04:54:07.448Z,11.90
2019-05-19T04:58:14.167Z,11.13
2019-05-19T05:02:20.903Z,12.50
2019-05-19T05:06:27.684Z,12.17
2019-05-19T05:10:34.444Z,11.30
2019-05-19T05:14:41.314Z,11.03
2019-05-19T05:18:50.729Z,10.77
2019-05-19T05:22:57.835Z,10.67
2019-05-19T05:27:04.571Z,10.07
2019-05-19T05:31:11.233Z,10.80
2019-05-19T05:35:18.693Z,10.57
2019-05-19T05:39:25.424Z,10.87
2019-05-19T05:43:32.215Z,9.80
2019-05-19T05:47:38.991Z,10.33
2019-05-19T05:51:45.689Z,9.97
2019-05-19T05:55:52.579Z,10.17
2019-05-19T05:59:59.443Z,10.13
2019-05-19T06:04:06.224Z,10.20
2019-05-19T06:08:13.084Z,10.10
2019-05-19T06:12:19.959Z,10.33
2019-05-19T06:16:28.685Z,9.53
2019-05-19T06:20:35.573Z,10.40
2019-05-19T06:24:42.456Z,10.43
2019-05-19T06:28:49.443Z,11.10
2019-05-19T06:32:58.452Z,16.27
2019-05-19T06:37:05.750Z,16.73
2019-05-19T06:41:13.983Z,16.83
2019-05-19T06:45:21.747Z,18.47
2019-05-19T06:49:29.397Z,17.90
2019-05-19T06:53:36.800Z,16.63
2019-05-19T06:57:43.889Z,18.07
2019-05-19T07:01:54.963Z,17.40
2019-05-19T07:06:01.738Z,19.03
2019-05-19T07:10:09.040Z,18.97
2019-05-19T07:14:15.757Z,18.80
2019-05-19T07:18:22.534Z,17.63
2019-05-19T07:22:37.562Z,18.17
2019-05-19T07:26:43.981Z,17.90
2019-05-19T07:30:50.845Z,19.40
2019-05-19T07:34:57.685Z,19.40
2019-05-19T07:39:05.714Z,19.70
2019-05-19T07:43:13.303Z,18.77
2019-05-19T07:47:20.290Z,18.33
2019-05-19T07:51:28.483Z,17.07
2019-05-19T07:55:35.412Z,18.20
2019-05-19T07:59:42.543Z,15.87
2019-05-19T08:03:49.394Z,15.93
2019-05-19T08:07:56.252Z,13.37
2019-05-19T08:12:03.805Z,14.57
2019-05-19T08:16:11.675Z,14.80
2019-05-19T08:20:20.317Z,15.13
2019-05-19T08:24:27.053Z,17.20
2019-05-19T08:28:34.471Z,16.57
2019-05-19T08:32:41.421Z,15.77
2019-05-19T08:36:48.878Z,12.77
2019-05-19T08:40:55.794Z,12.20
2019-05-19T08:45:07.658Z,13.03
2019-05-19T08:49:14.535Z,10.50
2019-05-19T08:53:29.275Z,9.73
2019-05-19T08:57:36.696Z,11.10
2019-05-19T09:01:44.084Z,9.03
2019-05-19T09:05:56.097Z,9.70
2019-05-19T09:10:02.873Z,9.60
2019-05-19T09:14:09.652Z,9.70
2019-05-19T09:18:16.431Z,9.73
2019-05-19T09:22:23.228Z,9.00
2019-05-19T09:26:29.946Z,9.40
2019-05-19T09:30:36.715Z,10.13
2019-05-19T09:34:43.405Z,9.07
2019-05-19T09:38:50.173Z,9.30
2019-05-19T09:42:56.941Z,8.83
2019-05-19T09:47:04.906Z,7.50
2019-05-19T09:51:11.760Z,7.03
2019-05-19T09:55:19.588Z,7.63
2019-05-19T09:59:26.374Z,7.07
2019-05-19T10:03:33.094Z,7.30
2019-05-19T10:07:39.790Z,7.07
2019-05-19T10:12:04.490Z,7.03
2019-05-19T10:16:11.299Z,7.37
2019-05-19T10:20:19.018Z,7.13
2019-05-19T10:24:26.787Z,8.03
2019-05-19T10:28:33.711Z,8.10
2019-05-19T10:32:40.490Z,8.03
2019-05-19T10:36:48.064Z,8.40
2019-05-19T10:40:54.915Z,7.93
2019-05-19T10:45:01.650Z,8.10
2019-05-19T10:49:08.450Z,7.13
2019-05-19T10:53:15.348Z,7.20
2019-05-19T10:57:24.865Z,7.00
2019-05-19T11:01:31.863Z,6.60
2019-05-19T11:05:40.184Z,6.50
2019-05-19T11:09:47.020Z,7.33
2019-05-19T11:13:53.822Z,6.97
2019-05-19T11:18:06.388Z,6.63
2019-05-19T11:22:12.108Z,6.73
2019-05-19T11:26:18.933Z,7.20
2019-05-19T11:30:25.681Z,6.40
2019-05-19T11:34:34.032Z,6.13
2019-05-19T11:38:40.967Z,7.07
2019-05-19T11:42:47.776Z,7.20
2019-05-19T11:46:54.549Z,6.07
2019-05-19T11:51:01.227Z,6.43
2019-05-19T11:55:08.264Z,7.27
2019-05-19T11:59:15.124Z,6.83
2019-05-19T12:03:21.876Z,6.30
2019-05-19T12:07:28.927Z,6.30
2019-05-19T12:11:35.738Z,6.67
2019-05-19T12:15:43.330Z,7.03
2019-05-19T12:19:50.406Z,10.37
2019-05-19T12:23:57.249Z,15.60
2019-05-19T12:28:08.621Z,14.00
2019-05-19T12:32:16.551Z,8.57
2019-05-19T12:36:25.226Z,5.90
2019-05-19T12:40:34.032Z,5.57
2019-05-19T12:44:41.478Z,6.17
2019-05-19T12:48:48.736Z,5.60
2019-05-19T12:52:55.570Z,5.67
2019-05-19T12:57:02.542Z,4.63
2019-05-19T13:01:09.768Z,4.57
2019-05-19T13:05:17.000Z,4.83
2019-05-19T13:09:29.011Z,5.10
2019-05-19T13:13:36.402Z,5.20
2019-05-19T13:17:43.240Z,5.70
2019-05-19T13:21:50.157Z,4.67
2019-05-19T13:25:57.169Z,5.28
2019-05-19T13:30:04.121Z,5.20
2019-05-19T13:34:13.218Z,4.78
2019-05-19T13:38:20.001Z,5.50
2019-05-19T13:42:26.822Z,5.87
2019-05-19T13:46:36.514Z,5.53
2019-05-19T13:50:44.335Z,5.47
2019-05-19T13:54:51.400Z,5.27
2019-05-19T13:58:58.184Z,5.22
2019-05-19T14:03:05.124Z,5.13
2019-05-19T14:07:12.037Z,5.30
2019-05-19T14:11:21.169Z,6.13
2019-05-19T14:15:32.567Z,5.03
2019-05-19T14:19:40.384Z,5.60
2019-05-19T14:23:47.260Z,5.03
2019-05-19T14:27:54.276Z,5.30
2019-05-19T14:32:01.546Z,5.40
2019-05-19T14:36:08.387Z,6.10
2019-05-19T14:40:18.492Z,5.20
2019-05-19T14:44:27.033Z,5.30
2019-05-19T14:48:33.842Z,5.70
2019-05-19T14:52:40.747Z,5.70
2019-05-19T14:56:47.596Z,7.67
2019-05-19T15:00:54.372Z,4.93
2019-05-19T15:05:02.679Z,4.67
2019-05-19T15:09:09.752Z,4.87
2019-05-19T15:13:16.773Z,6.20
2019-05-19T15:17:27.628Z,4.23
2019-05-19T15:21:34.430Z,2.70
2019-05-19T15:25:41.343Z,10.30
2019-05-19T15:30:11.767Z,2.70
2019-05-19T15:34:08.093Z,3.00
2019-05-19T15:38:15.053Z,2.90
2019-05-19T15:42:21.819Z,2.80
2019-05-19T15:46:28.971Z,2.50
2019-05-19T15:50:35.939Z,3.17
2019-05-19T15:54:44.284Z,3.17
2019-05-19T15:58:51.365Z,3.20
2019-05-19T16:02:58.164Z,3.13
2019-05-19T16:07:04.999Z,3.83
2019-05-19T16:11:12.092Z,2.77
2019-05-19T16:15:21.994Z,3.33
2019-05-19T16:19:28.892Z,3.50
2019-05-19T16:23:35.965Z,4.27
2019-05-19T16:27:42.886Z,4.23
2019-05-19T16:31:49.891Z,3.67
2019-05-19T16:35:57.029Z,3.50
2019-05-19T16:40:03.921Z,3.40
2019-05-19T16:44:11.781Z,3.83
2019-05-19T16:48:18.621Z,3.53
2019-05-19T16:52:26.423Z,3.37
2019-05-19T16:56:34.609Z,3.43
2019-05-19T17:00:45.527Z,3.60
2019-05-19T17:04:55.384Z,3.53
2019-05-19T17:09:02.080Z,3.90
2019-05-19T17:13:10.092Z,4.50
2019-05-19T17:17:18.699Z,4.10
2019-05-19T17:21:25.468Z,3.93
2019-05-19T17:25:34.114Z,3.70
2019-05-19T17:29:40.886Z,3.73
2019-05-19T17:33:47.745Z,3.50
2019-05-19T17:37:54.577Z,4.00
2019-05-19T17:42:01.462Z,3.77
2019-05-19T17:46:08.384Z,3.40
2019-05-19T17:50:17.406Z,3.37
2019-05-19T17:54:24.383Z,3.20
2019-05-19T17:58:33.002Z,3.20
2019-05-19T18:02:39.729Z,3.60
2019-05-19T18:06:46.489Z,3.30
2019-05-19T18:10:53.411Z,3.70
2019-05-19T18:15:03.171Z,3.37
2019-05-19T18:19:18.435Z,4.13
2019-05-19T18:23:26.433Z,4.30
2019-05-19T18:27:33.223Z,4.63
2019-05-19T18:31:40.988Z,4.80
2019-05-19T18:35:48.820Z,6.40
2019-05-19T18:39:57.310Z,5.00
2019-05-19T18:44:04.257Z,4.27
2019-05-19T18:48:11.363Z,4.87
2019-05-19T18:52:18.332Z,7.13
2019-05-19T18:56:25.608Z,7.13
2019-05-19T19:00:37.885Z,4.47
2019-05-19T19:04:44.742Z,4.90
2019-05-19T19:08:51.594Z,4.73
2019-05-19T19:12:58.637Z,4.77
2019-05-19T19:17:05.513Z,4.70
2019-05-19T19:21:12.545Z,4.77
2019-05-19T19:25:19.456Z,5.67
2019-05-19T19:29:27.202Z,5.00
2019-05-19T19:33:34.131Z,6.23
2019-05-19T19:37:41.925Z,5.23
2019-05-19T19:41:51.931Z,5.47
2019-05-19T19:45:59.236Z,6.40
2019-05-19T19:50:06.948Z,5.57
2019-05-19T19:54:14.926Z,6.23
2019-05-19T19:58:21.726Z,6.47
2019-05-19T20:02:28.491Z,6.70
2019-05-19T20:06:35.279Z,6.40
2019-05-19T20:10:42.008Z,6.77
2019-05-19T20:14:48.894Z,6.97
2019-05-19T20:18:55.732Z,6.47
2019-05-19T20:23:02.533Z,7.10
2019-05-19T20:27:09.241Z,6.23
2019-05-19T20:31:16.040Z,6.93
2019-05-19T20:35:22.909Z,7.70
2019-05-19T20:39:29.693Z,5.87
2019-05-19T20:43:37.113Z,5.57
2019-05-19T20:47:43.909Z,5.70
2019-05-19T20:51:50.678Z,7.87
2019-05-19T20:56:00.251Z,8.77
2019-05-19T21:00:08.125Z,6.83
2019-05-19T21:04:15.344Z,6.60
2019-05-19T21:08:22.039Z,6.43
2019-05-19T21:12:28.762Z,6.37
2019-05-19T21:16:35.600Z,7.33
2019-05-19T21:20:48.920Z,6.33
2019-05-19T21:24:56.159Z,6.00
2019-05-19T21:29:02.922Z,6.10
2019-05-19T21:33:09.678Z,6.23
2019-05-19T21:37:16.465Z,5.60
2019-05-19T21:41:23.248Z,5.90
2019-05-19T21:45:29.994Z,5.93
2019-05-19T21:49:42.076Z,5.67
2019-05-19T21:53:48.853Z,5.83
2019-05-19T21:57:55.600Z,5.83
2019-05-19T22:02:02.798Z,5.73
2019-05-19T22:06:09.833Z,5.83
2019-05-19T22:10:16.760Z,6.20
2019-05-19T22:14:23.456Z,5.93
2019-05-19T22:18:30.163Z,6.07
2019-05-19T22:22:36.888Z,6.27
2019-05-19T22:26:43.594Z,6.87
2019-05-19T22:30:50.372Z,6.30
2019-05-19T22:34:57.060Z,6.33
2019-05-19T22:39:04.823Z,6.53
2019-05-19T22:43:11.669Z,7.00
2019-05-19T22:47:18.378Z,6.57
2019-05-19T22:51:25.080Z,6.30
2019-05-19T22:55:31.764Z,7.10
2019-05-19T22:59:38.537Z,6.93
2019-05-19T23:03:45.305Z,7.83
2019-05-19T23:07:51.981Z,7.17
2019-05-19T23:11:58.720Z,6.90
2019-05-19T23:16:05.410Z,7.67
2019-05-19T23:20:12.263Z,7.30
2019-05-19T23:24:18.981Z,8.07
2019-05-19T23:28:25.726Z,7.50
2019-05-19T23:32:32.510Z,8.90
2019-05-19T23:36:39.347Z,8.30
2019-05-19T23:40:46.236Z,10.13
2019-05-19T23:44:53.001Z,9.23
2019-05-19T23:48:59.690Z,9.07
2019-05-19T23:53:07.579Z,10.03
2019-05-19T23:57:14.342Z,8.87
